Latest Weather Observations for Proserpine

IDQ60801

Issued at 7:42 am EST Monday 23 July 2018 (issued every 10 minutes, with the page automatically refreshed every 10 minutes)

About weather observations | Map of weather stations | Latest weather observations for QLD | Other Formats
Station Details ID: 033247 Name: PROSERPINE AIRPORT Lat: -20.49 Lon: 148.56 Height: 19.7 m
Data from the previous 72 hours. | See also: Recent months at Proserpine
Date/Time
EST
Temp
°C
App
Temp
°C
Dew
Point
°C
Rel
Hum
%
Delta-T
°C
Wind Press
QNH
hPa
Press
MSL
hPa
Rain since
9am
mm
Dir  Spd
km/h
Gust
km/h
Spd
kts
Gust
kts
23/07:30am 15.1 15.3 14.6 97 0.3 SSW 7 11 4 6 1019.6 1019.5 0.0
23/07:00am 13.9 13.8 13.4 97 0.3 S 6 7 3 4 1019.4 1019.3 0.0
23/06:30am 13.9 13.2 13.3 96 0.3 SSW 9 11 5 6 1019.0 1018.9 0.0
23/06:00am 14.4 13.2 13.9 97 0.3 SSW 13 13 7 7 1018.8 1018.7 0.0
23/05:30am 14.3 13.5 14.0 98 0.2 SSW 11 13 6 7 1018.4 1018.3 0.0
23/05:00am 14.1 12.8 13.6 97 0.3 SSW 13 13 7 7 1018.1 1018.0 0.0
23/04:30am 14.4 13.2 14.1 98 0.2 SSW 13 15 7 8 1017.9 1017.8 0.0
23/04:00am 14.3 13.5 14.0 98 0.2 SW 11 13 6 7 1017.8 1017.7 0.0
23/03:30am 14.4 14.3 13.9 97 0.3 SSW 7 9 4 5 1017.8 1017.7 0.0
23/03:00am 14.4 14.3 13.9 97 0.3 SSW 7 9 4 5 1018.0 1017.9 0.0
23/02:30am 14.7 13.6 14.2 97 0.3 SSW 13 13 7 7 1018.3 1018.2 0.0
23/02:00am 14.5 14.0 13.9 96 0.3 SSW 9 11 5 6 1018.5 1018.4 0.0
23/01:30am 14.7 14.0 14.2 97 0.3 SSW 11 13 6 7 1018.6 1018.5 0.0
23/01:00am 14.6 14.2 14.0 96 0.3 SSW 9 11 5 6 1018.9 1018.8 0.0
23/12:30am 15.0 14.7 14.4 96 0.3 SSW 9 9 5 5 1018.9 1018.8 0.0
23/12:00am 15.2 14.6 14.6 96 0.3 SSW 11 13 6 7 1019.1 1019.0 0.0
 
Date/Time
EST
Temp
°C
App
Temp
°C
Dew
Point
°C
Rel
Hum
%
Delta-T
°C
Wind Press
QNH
hPa
Press
MSL
hPa
Rain since
9am
mm
Dir  Spd
km/h
Gust
km/h
Spd
kts
Gust
kts
22/11:30pm 15.3 15.1 14.7 96 0.3 SW 9 11 5 6 1019.3 1019.2 0.0
22/11:00pm 15.5 14.9 14.7 95 0.5 SSW 11 11 6 6 1019.3 1019.2 0.0
22/10:30pm 15.9 15.9 15.1 95 0.5 S 9 11 5 6 1019.3 1019.2 0.0
22/10:00pm 16.2 16.2 15.2 94 0.6 S 9 11 5 6 1019.4 1019.3 0.0
22/09:30pm 16.5 16.6 15.4 93 0.6 SSW 9 11 5 6 1019.4 1019.3 0.0
22/09:00pm 17.2 17.5 15.9 92 0.8 SSW 9 9 5 5 1019.6 1019.5 0.0
22/08:41pm 17.8 18.2 16.3 91 0.9 SSW 9 11 5 6 1019.4 1019.3 0.0
22/08:30pm 18.0 18.1 16.5 91 0.9 S 11 13 6 7 1019.4 1019.3 0.0
22/08:29pm 18.0 18.1 16.5 91 0.9 S 11 13 6 7 1019.4 1019.3 0.0
22/08:25pm 18.1 18.2 16.6 91 0.9 S 11 13 6 7 1019.3 1019.2 0.0
22/08:00pm 18.4 18.9 16.6 89 1.1 S 9 15 5 8 1019.3 1019.2 0.0
22/07:30pm 18.5 19.1 16.8 90 1.0 S 9 11 5 6 1019.1 1019.0 0.0
22/07:00pm 18.0 18.5 16.5 91 0.9 SSE 9 11 5 6 1018.8 1018.7 0.0
22/06:58pm 18.0 18.5 16.5 91 0.9 S 9 11 5 6 1018.7 1018.6 0.0
22/06:30pm 18.3 18.7 16.3 88 1.2 SSE 9 11 5 6 1018.4 1018.3 0.0
22/06:00pm 19.0 18.5 16.8 87 1.3 SE 15 20 8 11 1018.1 1018.0 0.0
22/05:30pm 19.6 18.1 16.4 82 1.9 SE 19 24 10 13 1017.6 1017.6 0.0
22/05:00pm 20.6 18.9 16.2 76 2.6 ESE 20 28 11 15 1017.5 1017.5 0.0
22/04:30pm 21.4 19.6 15.9 71 3.3 ESE 20 28 11 15 1017.3 1017.3 0.0
22/04:00pm 22.1 20.1 15.5 66 3.9 ESE 20 28 11 15 1017.1 1017.1 0.0
22/03:30pm 22.6 19.9 15.7 65 4.1 ESE 24 32 13 17 1017.0 1017.0 0.0
22/03:00pm 23.0 20.4 15.8 64 4.3 ESE 24 32 13 17 1017.0 1017.0 0.0
22/02:30pm 23.6 20.8 15.4 60 4.9 E 24 32 13 17 1017.2 1017.2 0.0
22/02:00pm 24.4 22.1 15.6 58 5.3 E 22 32 12 17 1017.4 1017.4 0.0
22/01:30pm 23.7 21.0 14.7 57 5.3 ESE 22 30 12 16 1017.9 1017.8 0.0
22/01:00pm 23.3 20.6 14.6 58 5.1 ESE 22 32 12 17 1018.5 1018.4 0.0
22/12:30pm 23.8 21.2 14.8 57 5.4 ESE 22 32 12 17 1019.1 1019.0 0.0
22/12:00pm 23.4 20.6 14.4 57 5.3 ESE 22 33 12 18 1019.5 1019.4 0.0
22/11:30am 23.0 20.7 14.6 59 5.0 ESE 20 28 11 15 1020.0 1019.9 0.0
22/11:00am 22.9 20.7 15.0 61 4.7 E 20 30 11 16 1020.2 1020.1 0.0
22/10:30am 22.1 19.6 14.2 61 4.6 ESE 20 30 11 16 1020.6 1020.5 0.0
22/10:00am 21.7 19.6 13.6 60 4.7 SE 17 20 9 11 1020.9 1020.8 0.0
22/09:30am 21.3 20.1 14.0 63 4.2 SSE 13 19 7 10 1020.9 1020.8 0.0
22/09:00am 20.1 20.0 14.0 68 3.5 SSE 7 17 4 9 1021.0 1020.9 0.0
22/08:30am 17.9 18.0 13.8 77 2.3 SW 6 7 3 4 1021.0 1020.9 0.0
22/08:00am 16.6 16.0 13.5 82 1.7 S 9 11 5 6 1020.8 1020.7 0.0
22/07:30am 15.1 15.0 13.3 89 1.0 S 6 7 3 4 1020.6 1020.5 0.0
22/07:00am 13.9 13.1 12.8 93 0.6 SSW 9 11 5 6 1020.2 1020.1 0.0
22/06:30am 13.3 11.4 11.9 91 0.7 SW 13 13 7 7 1019.8 1019.7 0.0
22/06:00am 13.5 12.0 11.9 90 0.9 SSW 11 13 6 7 1019.5 1019.4 0.0
22/05:30am 14.0 11.8 12.2 89 1.0 SW 15 17 8 9 1019.4 1019.3 0.0
22/05:10am 14.1 12.3 12.1 88 1.1 SSW 13 15 7 8 1019.3 1019.2 0.0
22/05:00am 14.1 12.3 12.1 88 1.1 SW 13 13 7 7 1019.3 1019.2 0.0
22/04:55am 14.2 12.8 12.2 88 1.1 SW 11 13 6 7 1019.2 1019.1 0.0
22/04:30am 14.6 13.2 12.3 86 1.3 SSW 11 13 6 7 1019.2 1019.1 0.0
22/04:00am 16.2 15.5 13.1 82 1.7 SSW 9 13 5 7 1019.1 1019.0 0.0
22/03:30am 16.0 14.6 13.3 84 1.5 SSW 13 17 7 9 1019.0 1018.9 0.0
22/03:00am 15.9 14.4 13.2 84 1.5 SSW 13 15 7 8 1018.9 1018.8 0.0
22/02:30am 15.4 14.3 13.2 87 1.2 SSW 11 13 6 7 1019.2 1019.1 0.0
22/02:00am 15.4 14.8 13.4 88 1.1 SSW 9 11 5 6 1019.3 1019.2 0.0
22/01:30am 14.9 13.8 13.1 89 1.0 SSW 11 13 6 7 1019.5 1019.4 0.0
22/01:00am 15.2 14.1 13.2 88 1.1 SSW 11 15 6 8 1019.6 1019.5 0.0
22/12:30am 15.2 14.1 13.1 87 1.2 SSW 11 13 6 7 1019.7 1019.6 0.0
22/12:00am 15.3 14.2 13.2 87 1.2 SSW 11 13 6 7 1019.9 1019.8 0.0
 
Date/Time
EST
Temp
°C
App
Temp
°C
Dew
Point
°C
Rel
Hum
%
Delta-T
°C
Wind Press
QNH
hPa
Press
MSL
hPa
Rain since
9am
mm
Dir  Spd
km/h
Gust
km/h
Spd
kts
Gust
kts
21/11:30pm 16.2 15.8 14.0 87 1.2 SW 9 11 5 6 1020.1 1020.0 0.0
21/11:00pm 15.9 15.5 14.1 89 1.0 SW 9 9 5 5 1020.2 1020.1 0.0
21/10:30pm 15.5 15.0 13.7 89 1.0 SSW 9 11 5 6 1020.0 1019.9 0.0
21/10:00pm 15.7 15.2 13.7 88 1.1 SSW 9 11 5 6 1020.0 1019.9 0.0
21/09:30pm 15.8 15.0 14.0 89 1.0 SSW 11 13 6 7 1020.0 1019.9 0.0
21/09:00pm 16.5 15.8 14.3 87 1.3 SSW 11 13 6 7 1020.0 1019.9 0.0
21/08:30pm 16.8 16.6 14.6 87 1.3 SSW 9 9 5 5 1019.9 1019.8 0.0
21/08:00pm 17.3 17.1 14.6 84 1.6 SSW 9 11 5 6 1019.7 1019.6 0.0
21/07:30pm 19.0 18.0 15.7 81 2.0 SSE 15 20 8 11 1019.3 1019.2 0.0
21/07:00pm 19.1 19.0 16.0 82 1.8 SSE 11 15 6 8 1019.2 1019.1 0.0
21/06:30pm 18.9 17.1 15.6 81 1.9 SE 19 28 10 15 1018.9 1018.8 0.0
21/06:00pm 19.3 17.3 15.6 79 2.2 SE 20 26 11 14 1018.6 1018.5 0.0
21/05:30pm 19.8 16.9 15.2 75 2.7 SE 24 33 13 18 1018.3 1018.2 0.0
21/05:00pm 20.7 18.5 15.0 70 3.4 ESE 20 30 11 16 1017.9 1017.8 0.0
21/04:30pm 21.3 18.3 14.9 67 3.8 ESE 24 35 13 19 1017.4 1017.4 0.0
21/04:00pm 21.6 18.2 14.7 65 4.1 ESE 26 33 14 18 1017.1 1017.1 0.0
21/03:30pm 23.1 20.1 14.9 60 4.9 ESE 24 37 13 20 1017.0 1017.0 0.0
21/03:00pm 24.2 20.4 14.6 55 5.7 E 28 37 15 20 1016.9 1016.9 0.0
21/02:30pm 24.2 19.9 12.2 47 6.8 E 26 33 14 18 1017.1 1017.1 0.0
21/02:00pm 24.3 20.6 12.6 48 6.7 E 24 33 13 18 1017.2 1017.2 0.0
21/01:30pm 24.6 20.6 11.9 45 7.2 E 24 35 13 19 1017.4 1017.4 0.0
21/01:00pm 25.4 22.3 13.3 47 7.1 E 22 33 12 18 1017.6 1017.6 0.0
21/12:30pm 25.2 21.5 12.8 46 7.2 ESE 24 32 13 17 1018.0 1017.9 0.0
21/12:00pm 25.0 20.7 11.9 44 7.5 ESE 26 39 14 21 1018.4 1018.3 0.0
21/11:30am 24.5 19.6 10.0 40 8.0 ESE 26 33 14 18 1019.0 1018.9 0.0
21/11:00am 25.0 20.6 8.9 36 8.7 ESE 22 30 12 16 1019.2 1019.1 0.0
21/10:30am 25.0 20.2 7.2 32 9.3 ESE 22 30 12 16 1019.3 1019.2 0.0
21/10:00am 25.3 20.4 7.0 31 9.6 SE 22 32 12 17 1019.4 1019.3 0.0
21/09:30am 23.6 20.6 9.2 40 7.8 ESE 15 20 8 11 1019.5 1019.4 0.0
21/09:00am 21.5 20.5 14.6 65 4.0 ESE 13 20 7 11 1019.4 1019.3 0.0
21/08:30am 19.8 19.9 16.6 82 1.9 SE 11 15 6 8 1019.2 1019.1 0.0
21/08:00am 16.3 16.8 15.0 92 0.7 SSE 6 7 3 4 1018.7 1018.6 0.0
21/07:36am 14.2 14.0 13.7 97 0.3 SE 7 9 4 5 1018.6 1018.5 0.0
21/07:30am 13.7 13.6 13.2 97 0.3 SE 6 9 3 5 1018.5 1018.4 0.0
21/07:23am 13.3 14.2 12.8 97 0.3 CALM 0 9 0 5 1018.4 1018.3 0.0
21/07:03am 12.3 12.4 11.5 95 0.4 SW 2 6 1 3 1018.2 1018.1 0.0
21/07:00am 12.3 12.4 11.5 95 0.4 SW 2 6 1 3 1018.2 1018.1 0.0
21/06:33am 14.0 15.1 13.5 97 0.3 CALM 0 0 0 0 1017.6 1017.6 0.0
21/06:30am 14.2 15.4 13.7 97 0.3 CALM 0 0 0 0 1017.5 1017.5 0.0
21/06:29am 14.2 15.4 13.7 97 0.3 CALM 0 0 0 0 1017.5 1017.5 0.0
21/06:19am 13.6 14.5 12.8 95 0.4 CALM 0 0 0 0 1017.5 1017.5 0.0
21/06:00am 13.9 14.9 13.1 95 0.4 CALM 0 0 0 0 1017.4 1017.4 0.0
21/05:56am 13.9 14.9 13.1 95 0.4 CALM 0 4 0 2 1017.3 1017.3 0.0
21/05:38am 14.4 15.6 13.8 96 0.3 CALM 0 6 0 3 1017.1 1017.1 0.0
21/05:30am 14.4 15.1 13.4 94 0.6 NNW 2 6 1 3 1017.0 1017.0 0.0
21/05:00am 15.3 15.7 14.7 96 0.3 NNW 6 7 3 4 1016.8 1016.8 0.0
21/04:30am 15.4 17.0 14.8 96 0.3 CALM 0 0 0 0 1016.8 1016.8 0.0
21/04:00am 15.3 16.7 14.3 94 0.6 CALM 0 0 0 0 1016.6 1016.6 0.0
21/03:30am 15.6 17.0 14.5 93 0.6 CALM 0 0 0 0 1016.7 1016.7 0.0
21/03:00am 16.1 16.6 15.0 93 0.6 E 6 6 3 3 1016.8 1016.8 0.0
21/02:30am 17.4 18.8 16.3 93 0.7 N 4 7 2 4 1016.9 1016.9 0.0
21/02:00am 16.6 17.5 15.0 90 0.9 NNW 4 6 2 3 1017.3 1017.3 0.0
21/01:30am 17.5 18.1 15.8 90 1.0 NNW 7 9 4 5 1017.5 1017.5 0.0
21/01:00am 18.2 20.3 16.2 88 1.2 CALM 0 0 0 0 1018.0 1017.9 0.0
21/12:30am 18.0 19.1 15.6 86 1.4 NW 4 7 2 4 1018.0 1017.9 0.0
21/12:00am 17.9 17.9 15.3 85 1.5 NW 9 11 5 6 1018.3 1018.2 0.0
 
Date/Time
EST
Temp
°C
App
Temp
°C
Dew
Point
°C
Rel
Hum
%
Delta-T
°C
Wind Press
QNH
hPa
Press
MSL
hPa
Rain since
9am
mm
Dir  Spd
km/h
Gust
km/h
Spd
kts
Gust
kts
20/11:30pm 18.4 19.8 15.3 82 1.8 NW 2 6 1 3 1018.2 1018.1 0.0
20/11:00pm 19.1 20.0 16.0 82 1.8 NW 6 7 3 4 1017.9 1017.8 0.0
20/10:30pm 19.9 20.1 16.7 82 1.9 NW 11 17 6 9 1018.1 1018.0 0.0
20/10:00pm 20.4 20.0 17.2 82 2.0 NW 15 20 8 11 1018.2 1018.1 0.0
20/09:30pm 20.1 21.2 17.1 83 1.8 NNW 7 11 4 6 1018.0 1017.9 0.0
20/09:00pm 20.5 20.1 17.1 81 2.1 NW 15 17 8 9 1017.8 1017.7 0.0
20/08:30pm 19.5 20.2 16.2 81 2.0 NNW 7 9 4 5 1017.6 1017.6 0.0
20/08:00pm 19.9 20.0 14.5 71 3.1 NW 7 9 4 5 1017.4 1017.4 0.0
20/07:30pm 20.6 20.7 14.5 68 3.6 NW 7 11 4 6 1017.1 1017.1 0.0
20/07:00pm 20.9 20.7 14.8 68 3.6 N 9 11 5 6 1016.8 1016.8 0.0
20/06:30pm 21.8 21.7 14.9 65 4.1 N 9 17 5 9 1016.5 1016.5 0.0
20/06:00pm 22.1 22.1 15.2 65 4.1 N 9 11 5 6 1016.0 1016.0 0.0
20/05:30pm 23.5 23.4 15.0 59 5.1 N 9 15 5 8 1015.7 1015.7 0.0
20/05:00pm 24.7 23.0 14.8 54 5.9 N 17 24 9 13 1015.1 1015.1 0.0
20/04:30pm 25.8 22.2 11.9 42 8.0 NNW 22 30 12 16 1015.0 1015.0 0.0
20/04:00pm 27.1 23.5 12.0 39 8.7 N 22 30 12 16 1014.7 1014.7 0.0
20/03:30pm 27.9 24.6 12.7 39 8.9 NNW 22 30 12 16 1014.7 1014.7 0.0
20/03:00pm 27.5 24.4 12.3 39 8.8 N 20 33 11 18 1014.8 1014.8 0.0
20/02:30pm 28.1 25.7 12.8 38 9.0 NNW 17 24 9 13 1014.9 1014.9 0.0
20/02:00pm 27.8 25.5 13.0 40 8.7 N 17 22 9 12 1015.3 1015.3 0.0
20/01:30pm 28.2 25.9 14.1 42 8.4 NNW 19 26 10 14 1015.8 1015.8 0.0
20/01:00pm 26.8 24.4 13.9 45 7.7 NNW 19 35 10 19 1016.3 1016.3 0.0
20/12:30pm 26.3 25.0 14.7 48 7.0 NNW 15 20 8 11 1016.7 1016.7 0.0
20/12:00pm 26.9 25.9 15.6 50 6.9 NW 15 24 8 13 1017.2 1017.2 0.0
20/11:30am 26.0 25.2 16.0 54 6.1 NNW 15 24 8 13 1017.8 1017.7 0.0
20/11:00am 25.1 24.4 15.4 55 5.8 N 13 22 7 12 1018.4 1018.3 0.0
20/10:30am 24.5 25.4 16.5 61 4.9 NW 7 11 4 6 1018.6 1018.5 0.0
20/10:00am 23.4 24.4 16.4 64 4.3 E 6 9 3 5 1018.9 1018.8 0.0
20/09:30am 21.3 23.3 16.9 76 2.7 SW 2 6 1 3 1019.2 1019.1 0.0
20/09:00am 19.7 21.5 16.5 82 1.9 W 2 6 1 3 1019.1 1019.0 0.0
20/08:30am 17.1 19.0 15.8 92 0.8 CALM 0 0 0 0 1018.9 1018.8 0.0
20/08:00am 15.7 16.6 15.2 97 0.3 W 4 6 2 3 1018.9 1018.8 0.0

Other Formats:

Comma delimited format used in spreadsheet applications
http://www.bom.gov.au/fwo/IDQ60801/IDQ60801.94365.axf

JavaScript Object Notation format (JSON) in row-major order
http://www.bom.gov.au/fwo/IDQ60801/IDQ60801.94365.json